sensor_id;sensor_type;location;lat;lon;timestamp;P1;durP1;ratioP1;P2;durP2;ratioP2
64791;SDS011;51226;47.504;19.074;2023-04-06T00:01:47;10.02;;;6.30;;
64791;SDS011;51226;47.504;19.074;2023-04-06T00:04:50;8.40;;;5.75;;
64791;SDS011;51226;47.504;19.074;2023-04-06T00:07:53;8.13;;;5.57;;
64791;SDS011;51226;47.504;19.074;2023-04-06T00:10:58;8.48;;;6.10;;
64791;SDS011;51226;47.504;19.074;2023-04-06T00:14:01;8.15;;;5.93;;
64791;SDS011;51226;47.504;19.074;2023-04-06T00:17:04;7.78;;;5.97;;
64791;SDS011;51226;47.504;19.074;2023-04-06T00:20:07;8.02;;;5.72;;
64791;SDS011;51226;47.504;19.074;2023-04-06T00:23:10;8.25;;;5.90;;
64791;SDS011;51226;47.504;19.074;2023-04-06T00:26:13;9.45;;;6.18;;
64791;SDS011;51226;47.504;19.074;2023-04-06T00:29:19;9.23;;;5.85;;
64791;SDS011;51226;47.504;19.074;2023-04-06T00:32:22;6.03;;;5.43;;
64791;SDS011;51226;47.504;19.074;2023-04-06T00:35:25;9.93;;;5.80;;
64791;SDS011;51226;47.504;19.074;2023-04-06T00:38:28;7.35;;;5.65;;
64791;SDS011;51226;47.504;19.074;2023-04-06T00:41:31;8.73;;;6.03;;
64791;SDS011;51226;47.504;19.074;2023-04-06T00:44:34;8.10;;;5.70;;
64791;SDS011;51226;47.504;19.074;2023-04-06T00:47:37;6.43;;;5.72;;
64791;SDS011;51226;47.504;19.074;2023-04-06T00:53:43;9.75;;;6.55;;
64791;SDS011;51226;47.504;19.074;2023-04-06T00:56:48;8.95;;;5.90;;
64791;SDS011;51226;47.504;19.074;2023-04-06T00:59:51;8.75;;;6.05;;
64791;SDS011;51226;47.504;19.074;2023-04-06T01:02:56;6.62;;;5.50;;
64791;SDS011;51226;47.504;19.074;2023-04-06T01:06:02;11.02;;;6.10;;
64791;SDS011;51226;47.504;19.074;2023-04-06T01:09:05;7.18;;;5.65;;
64791;SDS011;51226;47.504;19.074;2023-04-06T01:12:09;8.80;;;5.80;;
64791;SDS011;51226;47.504;19.074;2023-04-06T01:15:12;6.93;;;6.15;;
64791;SDS011;51226;47.504;19.074;2023-04-06T01:18:16;6.78;;;5.80;;
64791;SDS011;51226;47.504;19.074;2023-04-06T01:21:21;8.27;;;6.07;;
64791;SDS011;51226;47.504;19.074;2023-04-06T01:24:26;8.65;;;6.70;;
64791;SDS011;51226;47.504;19.074;2023-04-06T01:30:34;10.98;;;7.28;;
64791;SDS011;51226;47.504;19.074;2023-04-06T01:33:39;12.88;;;7.70;;
64791;SDS011;51226;47.504;19.074;2023-04-06T01:36:42;11.05;;;7.57;;
64791;SDS011;51226;47.504;19.074;2023-04-06T01:39:50;15.70;;;8.55;;
64791;SDS011;51226;47.504;19.074;2023-04-06T01:42:54;10.55;;;8.57;;
64791;SDS011;51226;47.504;19.074;2023-04-06T01:45:59;13.70;;;8.57;;
64791;SDS011;51226;47.504;19.074;2023-04-06T01:49:03;12.27;;;8.23;;
64791;SDS011;51226;47.504;19.074;2023-04-06T01:52:10;12.43;;;9.52;;
64791;SDS011;51226;47.504;19.074;2023-04-06T01:55:14;14.05;;;7.80;;
64791;SDS011;51226;47.504;19.074;2023-04-06T01:58:19;12.10;;;8.48;;
64791;SDS011;51226;47.504;19.074;2023-04-06T02:01:22;10.77;;;7.18;;
64791;SDS011;51226;47.504;19.074;2023-04-06T02:07:29;9.43;;;7.82;;
64791;SDS011;51226;47.504;19.074;2023-04-06T02:13:36;8.73;;;6.50;;
64791;SDS011;51226;47.504;19.074;2023-04-06T02:19:42;8.35;;;7.18;;
64791;SDS011;51226;47.504;19.074;2023-04-06T02:22:45;9.75;;;6.87;;
64791;SDS011;51226;47.504;19.074;2023-04-06T02:25:48;9.30;;;6.35;;
64791;SDS011;51226;47.504;19.074;2023-04-06T02:28:51;10.52;;;6.95;;
64791;SDS011;51226;47.504;19.074;2023-04-06T02:31:54;12.07;;;7.75;;
64791;SDS011;51226;47.504;19.074;2023-04-06T02:38:00;12.57;;;7.10;;
64791;SDS011;51226;47.504;19.074;2023-04-06T02:41:03;12.50;;;7.00;;
64791;SDS011;51226;47.504;19.074;2023-04-06T02:44:07;15.52;;;7.60;;
64791;SDS011;51226;47.504;19.074;2023-04-06T02:47:14;9.85;;;7.72;;
64791;SDS011;51226;47.504;19.074;2023-04-06T02:50:20;10.60;;;7.68;;
64791;SDS011;51226;47.504;19.074;2023-04-06T02:53:24;13.00;;;8.45;;
64791;SDS011;51226;47.504;19.074;2023-04-06T02:56:27;18.37;;;12.88;;
64791;SDS011;51226;47.504;19.074;2023-04-06T02:59:30;17.73;;;9.05;;
64791;SDS011;51226;47.504;19.074;2023-04-06T03:02:34;11.90;;;8.15;;
64791;SDS011;51226;47.504;19.074;2023-04-06T03:05:38;14.73;;;8.57;;
64791;SDS011;51226;47.504;19.074;2023-04-06T03:08:42;13.27;;;7.95;;
64791;SDS011;51226;47.504;19.074;2023-04-06T03:11:45;15.48;;;8.90;;
64791;SDS011;51226;47.504;19.074;2023-04-06T03:14:49;14.25;;;8.55;;
64791;SDS011;51226;47.504;19.074;2023-04-06T03:17:52;15.25;;;9.40;;
64791;SDS011;51226;47.504;19.074;2023-04-06T03:20:58;14.23;;;8.63;;
64791;SDS011;51226;47.504;19.074;2023-04-06T03:24:02;16.15;;;9.00;;
64791;SDS011;51226;47.504;19.074;2023-04-06T03:27:06;13.18;;;9.35;;
64791;SDS011;51226;47.504;19.074;2023-04-06T03:30:10;24.63;;;15.82;;
64791;SDS011;51226;47.504;19.074;2023-04-06T03:33:14;19.45;;;10.80;;
64791;SDS011;51226;47.504;19.074;2023-04-06T03:36:19;12.93;;;9.13;;
64791;SDS011;51226;47.504;19.074;2023-04-06T03:39:22;14.50;;;9.25;;
64791;SDS011;51226;47.504;19.074;2023-04-06T03:42:26;18.05;;;11.50;;
64791;SDS011;51226;47.504;19.074;2023-04-06T03:45:30;27.08;;;15.45;;
64791;SDS011;51226;47.504;19.074;2023-04-06T03:48:34;16.00;;;9.68;;
64791;SDS011;51226;47.504;19.074;2023-04-06T03:51:37;13.48;;;9.88;;
64791;SDS011;51226;47.504;19.074;2023-04-06T03:54:40;14.07;;;9.98;;
64791;SDS011;51226;47.504;19.074;2023-04-06T03:57:45;14.43;;;9.88;;
64791;SDS011;51226;47.504;19.074;2023-04-06T04:00:48;16.33;;;9.30;;
64791;SDS011;51226;47.504;19.074;2023-04-06T04:03:50;12.55;;;8.77;;
64791;SDS011;51226;47.504;19.074;2023-04-06T04:06:54;12.45;;;8.68;;
64791;SDS011;51226;47.504;19.074;2023-04-06T04:09:57;13.70;;;9.13;;
64791;SDS011;51226;47.504;19.074;2023-04-06T04:13:00;13.20;;;9.15;;
64791;SDS011;51226;47.504;19.074;2023-04-06T04:16:04;15.35;;;9.68;;
64791;SDS011;51226;47.504;19.074;2023-04-06T04:22:12;16.10;;;9.70;;
64791;SDS011;51226;47.504;19.074;2023-04-06T04:25:16;17.17;;;11.00;;
64791;SDS011;51226;47.504;19.074;2023-04-06T04:28:19;13.13;;;9.73;;
64791;SDS011;51226;47.504;19.074;2023-04-06T04:31:22;15.20;;;10.15;;
64791;SDS011;51226;47.504;19.074;2023-04-06T04:34:26;13.88;;;10.27;;
64791;SDS011;51226;47.504;19.074;2023-04-06T04:37:29;14.48;;;9.75;;
64791;SDS011;51226;47.504;19.074;2023-04-06T04:40:33;12.85;;;10.43;;
64791;SDS011;51226;47.504;19.074;2023-04-06T04:43:37;14.18;;;9.25;;
64791;SDS011;51226;47.504;19.074;2023-04-06T04:46:40;16.33;;;10.50;;
64791;SDS011;51226;47.504;19.074;2023-04-06T04:49:44;13.57;;;9.73;;
64791;SDS011;51226;47.504;19.074;2023-04-06T04:52:49;11.45;;;8.45;;
64791;SDS011;51226;47.504;19.074;2023-04-06T04:55:52;11.95;;;8.25;;
64791;SDS011;51226;47.504;19.074;2023-04-06T05:01:59;11.85;;;7.82;;
64791;SDS011;51226;47.504;19.074;2023-04-06T05:05:04;15.07;;;8.05;;
64791;SDS011;51226;47.504;19.074;2023-04-06T05:08:07;10.38;;;8.23;;
64791;SDS011;51226;47.504;19.074;2023-04-06T05:14:15;10.90;;;8.23;;
64791;SDS011;51226;47.504;19.074;2023-04-06T05:17:19;15.55;;;9.23;;
64791;SDS011;51226;47.504;19.074;2023-04-06T05:20:22;14.75;;;9.65;;
64791;SDS011;51226;47.504;19.074;2023-04-06T05:26:29;11.80;;;8.67;;
64791;SDS011;51226;47.504;19.074;2023-04-06T05:29:33;12.95;;;9.20;;
64791;SDS011;51226;47.504;19.074;2023-04-06T05:32:36;15.23;;;9.45;;
64791;SDS011;51226;47.504;19.074;2023-04-06T05:35:40;16.05;;;9.25;;
64791;SDS011;51226;47.504;19.074;2023-04-06T05:38:44;17.08;;;10.60;;
64791;SDS011;51226;47.504;19.074;2023-04-06T05:41:48;14.50;;;9.35;;
64791;SDS011;51226;47.504;19.074;2023-04-06T05:44:55;14.82;;;9.93;;
64791;SDS011;51226;47.504;19.074;2023-04-06T05:47:58;15.80;;;8.70;;
64791;SDS011;51226;47.504;19.074;2023-04-06T05:54:11;14.80;;;9.70;;
64791;SDS011;51226;47.504;19.074;2023-04-06T06:00:19;10.93;;;8.98;;
64791;SDS011;51226;47.504;19.074;2023-04-06T06:03:24;12.48;;;9.85;;
64791;SDS011;51226;47.504;19.074;2023-04-06T06:06:27;15.52;;;10.32;;
64791;SDS011;51226;47.504;19.074;2023-04-06T06:09:34;14.93;;;10.65;;
64791;SDS011;51226;47.504;19.074;2023-04-06T06:12:38;15.35;;;10.80;;
64791;SDS011;51226;47.504;19.074;2023-04-06T06:15:41;20.73;;;11.82;;
64791;SDS011;51226;47.504;19.074;2023-04-06T06:18:44;14.97;;;11.17;;
64791;SDS011;51226;47.504;19.074;2023-04-06T06:21:48;18.75;;;11.95;;
64791;SDS011;51226;47.504;19.074;2023-04-06T06:24:51;16.12;;;10.13;;
64791;SDS011;51226;47.504;19.074;2023-04-06T06:30:57;14.87;;;10.27;;
64791;SDS011;51226;47.504;19.074;2023-04-06T06:34:01;14.00;;;11.02;;
64791;SDS011;51226;47.504;19.074;2023-04-06T06:37:05;15.32;;;10.93;;
64791;SDS011;51226;47.504;19.074;2023-04-06T06:40:09;20.15;;;12.57;;
64791;SDS011;51226;47.504;19.074;2023-04-06T06:43:16;18.98;;;10.77;;
64791;SDS011;51226;47.504;19.074;2023-04-06T06:46:20;17.80;;;11.63;;
64791;SDS011;51226;47.504;19.074;2023-04-06T06:49:24;18.52;;;12.15;;
64791;SDS011;51226;47.504;19.074;2023-04-06T06:52:27;14.10;;;11.00;;
64791;SDS011;51226;47.504;19.074;2023-04-06T06:55:31;13.13;;;10.55;;
64791;SDS011;51226;47.504;19.074;2023-04-06T06:58:34;16.08;;;10.00;;
64791;SDS011;51226;47.504;19.074;2023-04-06T07:01:37;13.02;;;9.10;;
64791;SDS011;51226;47.504;19.074;2023-04-06T07:04:40;13.07;;;10.15;;
64791;SDS011;51226;47.504;19.074;2023-04-06T07:07:43;14.05;;;9.27;;
64791;SDS011;51226;47.504;19.074;2023-04-06T07:13:56;13.48;;;8.57;;
64791;SDS011;51226;47.504;19.074;2023-04-06T07:17:01;11.00;;;8.77;;
64791;SDS011;51226;47.504;19.074;2023-04-06T07:20:04;12.75;;;8.98;;
64791;SDS011;51226;47.504;19.074;2023-04-06T07:23:09;10.85;;;8.60;;
64791;SDS011;51226;47.504;19.074;2023-04-06T07:26:11;13.93;;;9.45;;
64791;SDS011;51226;47.504;19.074;2023-04-06T07:29:17;13.38;;;9.45;;
64791;SDS011;51226;47.504;19.074;2023-04-06T07:32:20;11.00;;;8.43;;
64791;SDS011;51226;47.504;19.074;2023-04-06T07:38:27;13.32;;;9.15;;
64791;SDS011;51226;47.504;19.074;2023-04-06T07:41:31;13.88;;;9.40;;
64791;SDS011;51226;47.504;19.074;2023-04-06T07:44:35;14.65;;;9.25;;
64791;SDS011;51226;47.504;19.074;2023-04-06T07:47:38;10.65;;;8.85;;
64791;SDS011;51226;47.504;19.074;2023-04-06T07:50:42;11.12;;;8.80;;
64791;SDS011;51226;47.504;19.074;2023-04-06T07:56:49;12.45;;;9.43;;
64791;SDS011;51226;47.504;19.074;2023-04-06T07:59:52;15.25;;;8.77;;
64791;SDS011;51226;47.504;19.074;2023-04-06T08:02:55;11.70;;;9.13;;
64791;SDS011;51226;47.504;19.074;2023-04-06T08:05:58;10.88;;;9.23;;
64791;SDS011;51226;47.504;19.074;2023-04-06T08:09:02;14.98;;;9.23;;
64791;SDS011;51226;47.504;19.074;2023-04-06T08:12:06;11.05;;;9.18;;
64791;SDS011;51226;47.504;19.074;2023-04-06T08:15:08;11.35;;;9.30;;
64791;SDS011;51226;47.504;19.074;2023-04-06T08:18:12;13.02;;;9.52;;
64791;SDS011;51226;47.504;19.074;2023-04-06T08:21:15;11.25;;;9.93;;
64791;SDS011;51226;47.504;19.074;2023-04-06T08:27:21;11.90;;;9.20;;
64791;SDS011;51226;47.504;19.074;2023-04-06T08:30:24;15.85;;;10.88;;
64791;SDS011;51226;47.504;19.074;2023-04-06T08:33:28;13.25;;;9.73;;
64791;SDS011;51226;47.504;19.074;2023-04-06T08:36:31;10.60;;;9.32;;
64791;SDS011;51226;47.504;19.074;2023-04-06T08:39:34;10.95;;;9.18;;
64791;SDS011;51226;47.504;19.074;2023-04-06T08:42:39;11.40;;;9.30;;
64791;SDS011;51226;47.504;19.074;2023-04-06T08:45:43;10.35;;;9.07;;
64791;SDS011;51226;47.504;19.074;2023-04-06T08:48:47;11.95;;;9.57;;
64791;SDS011;51226;47.504;19.074;2023-04-06T08:51:53;11.45;;;9.43;;
64791;SDS011;51226;47.504;19.074;2023-04-06T08:54:57;11.68;;;9.32;;
64791;SDS011;51226;47.504;19.074;2023-04-06T08:58:00;10.75;;;8.80;;
64791;SDS011;51226;47.504;19.074;2023-04-06T09:01:08;11.82;;;9.00;;
64791;SDS011;51226;47.504;19.074;2023-04-06T09:04:13;12.07;;;8.55;;
64791;SDS011;51226;47.504;19.074;2023-04-06T09:07:18;10.75;;;9.07;;
64791;SDS011;51226;47.504;19.074;2023-04-06T09:10:21;10.32;;;8.98;;
64791;SDS011;51226;47.504;19.074;2023-04-06T09:13:27;9.75;;;8.68;;
64791;SDS011;51226;47.504;19.074;2023-04-06T09:16:38;11.57;;;8.75;;
64791;SDS011;51226;47.504;19.074;2023-04-06T09:19:46;11.20;;;8.70;;
64791;SDS011;51226;47.504;19.074;2023-04-06T09:22:49;11.18;;;8.60;;
64791;SDS011;51226;47.504;19.074;2023-04-06T09:26:04;11.43;;;9.05;;
64791;SDS011;51226;47.504;19.074;2023-04-06T09:29:07;10.20;;;8.48;;
64791;SDS011;51226;47.504;19.074;2023-04-06T09:32:11;10.90;;;8.43;;
64791;SDS011;51226;47.504;19.074;2023-04-06T09:38:18;11.45;;;8.13;;
64791;SDS011;51226;47.504;19.074;2023-04-06T09:41:25;9.23;;;8.23;;
64791;SDS011;51226;47.504;19.074;2023-04-06T09:44:29;10.80;;;8.10;;
64791;SDS011;51226;47.504;19.074;2023-04-06T09:47:32;11.05;;;8.10;;
64791;SDS011;51226;47.504;19.074;2023-04-06T09:50:38;12.07;;;8.38;;
64791;SDS011;51226;47.504;19.074;2023-04-06T09:53:42;9.77;;;7.47;;
64791;SDS011;51226;47.504;19.074;2023-04-06T10:00:21;8.82;;;7.80;;
64791;SDS011;51226;47.504;19.074;2023-04-06T10:06:57;9.65;;;7.75;;
64791;SDS011;51226;47.504;19.074;2023-04-06T10:10:02;10.02;;;7.95;;
64791;SDS011;51226;47.504;19.074;2023-04-06T10:16:10;9.40;;;7.78;;
64791;SDS011;51226;47.504;19.074;2023-04-06T10:19:17;10.05;;;7.85;;
64791;SDS011;51226;47.504;19.074;2023-04-06T10:22:26;11.48;;;8.55;;
64791;SDS011;51226;47.504;19.074;2023-04-06T10:25:38;10.60;;;8.15;;
64791;SDS011;51226;47.504;19.074;2023-04-06T10:28:42;8.45;;;7.55;;
64791;SDS011;51226;47.504;19.074;2023-04-06T10:31:48;10.75;;;8.38;;
64791;SDS011;51226;47.504;19.074;2023-04-06T10:34:52;9.38;;;7.65;;
64791;SDS011;51226;47.504;19.074;2023-04-06T10:38:01;12.85;;;7.53;;
64791;SDS011;51226;47.504;19.074;2023-04-06T10:41:07;9.63;;;7.75;;
64791;SDS011;51226;47.504;19.074;2023-04-06T10:44:21;11.88;;;7.97;;
64791;SDS011;51226;47.504;19.074;2023-04-06T10:47:25;8.95;;;7.30;;
64791;SDS011;51226;47.504;19.074;2023-04-06T10:50:28;10.50;;;7.60;;
64791;SDS011;51226;47.504;19.074;2023-04-06T10:53:32;10.63;;;8.07;;
64791;SDS011;51226;47.504;19.074;2023-04-06T10:56:36;8.35;;;7.10;;
64791;SDS011;51226;47.504;19.074;2023-04-06T10:59:42;9.90;;;7.45;;
64791;SDS011;51226;47.504;19.074;2023-04-06T11:02:45;11.65;;;7.68;;
64791;SDS011;51226;47.504;19.074;2023-04-06T11:05:49;8.05;;;6.90;;
64791;SDS011;51226;47.504;19.074;2023-04-06T11:08:53;8.75;;;7.57;;
64791;SDS011;51226;47.504;19.074;2023-04-06T11:11:57;11.57;;;7.03;;
64791;SDS011;51226;47.504;19.074;2023-04-06T11:15:01;8.65;;;7.03;;
64791;SDS011;51226;47.504;19.074;2023-04-06T11:18:09;7.87;;;7.15;;
64791;SDS011;51226;47.504;19.074;2023-04-06T11:21:13;7.30;;;6.60;;
64791;SDS011;51226;47.504;19.074;2023-04-06T11:24:21;7.80;;;6.80;;
64791;SDS011;51226;47.504;19.074;2023-04-06T11:27:25;7.90;;;6.35;;
64791;SDS011;51226;47.504;19.074;2023-04-06T11:30:34;7.97;;;6.32;;
64791;SDS011;51226;47.504;19.074;2023-04-06T11:33:37;7.28;;;6.53;;
64791;SDS011;51226;47.504;19.074;2023-04-06T11:36:41;11.95;;;7.00;;
64791;SDS011;51226;47.504;19.074;2023-04-06T11:39:49;8.85;;;6.12;;
64791;SDS011;51226;47.504;19.074;2023-04-06T11:42:57;8.30;;;6.50;;
64791;SDS011;51226;47.504;19.074;2023-04-06T11:46:00;8.43;;;7.55;;
64791;SDS011;51226;47.504;19.074;2023-04-06T11:49:05;9.35;;;7.12;;
64791;SDS011;51226;47.504;19.074;2023-04-06T11:58:24;9.95;;;7.45;;
64791;SDS011;51226;47.504;19.074;2023-04-06T12:04:31;10.70;;;8.05;;
64791;SDS011;51226;47.504;19.074;2023-04-06T12:07:34;8.77;;;7.87;;
64791;SDS011;51226;47.504;19.074;2023-04-06T12:10:37;8.48;;;7.12;;
64791;SDS011;51226;47.504;19.074;2023-04-06T12:13:40;9.45;;;6.95;;
64791;SDS011;51226;47.504;19.074;2023-04-06T12:16:43;9.52;;;7.18;;
64791;SDS011;51226;47.504;19.074;2023-04-06T12:22:49;8.55;;;7.25;;
64791;SDS011;51226;47.504;19.074;2023-04-06T12:25:52;9.75;;;7.03;;
64791;SDS011;51226;47.504;19.074;2023-04-06T12:28:57;10.50;;;7.62;;
64791;SDS011;51226;47.504;19.074;2023-04-06T12:32:07;8.63;;;7.75;;
64791;SDS011;51226;47.504;19.074;2023-04-06T12:35:10;33.00;;;21.67;;
64791;SDS011;51226;47.504;19.074;2023-04-06T12:38:15;9.85;;;7.35;;
64791;SDS011;51226;47.504;19.074;2023-04-06T12:41:18;7.85;;;6.90;;
64791;SDS011;51226;47.504;19.074;2023-04-06T12:44:22;8.13;;;7.30;;
64791;SDS011;51226;47.504;19.074;2023-04-06T12:47:28;8.57;;;6.95;;
64791;SDS011;51226;47.504;19.074;2023-04-06T12:50:31;8.68;;;6.93;;
64791;SDS011;51226;47.504;19.074;2023-04-06T12:53:34;9.68;;;7.85;;
64791;SDS011;51226;47.504;19.074;2023-04-06T12:56:38;8.48;;;7.22;;
64791;SDS011;51226;47.504;19.074;2023-04-06T12:59:44;10.00;;;7.47;;
64791;SDS011;51226;47.504;19.074;2023-04-06T13:02:47;10.43;;;7.75;;
64791;SDS011;51226;47.504;19.074;2023-04-06T13:05:51;8.07;;;7.18;;
64791;SDS011;51226;47.504;19.074;2023-04-06T13:08:54;9.07;;;6.57;;
64791;SDS011;51226;47.504;19.074;2023-04-06T13:15:00;10.50;;;7.55;;
64791;SDS011;51226;47.504;19.074;2023-04-06T13:18:03;8.35;;;7.50;;
64791;SDS011;51226;47.504;19.074;2023-04-06T13:21:06;8.07;;;6.72;;
64791;SDS011;51226;47.504;19.074;2023-04-06T13:24:10;9.65;;;7.32;;
64791;SDS011;51226;47.504;19.074;2023-04-06T13:27:13;11.05;;;7.25;;
64791;SDS011;51226;47.504;19.074;2023-04-06T13:33:19;9.30;;;6.57;;
64791;SDS011;51226;47.504;19.074;2023-04-06T13:36:22;8.35;;;6.62;;
64791;SDS011;51226;47.504;19.074;2023-04-06T13:39:25;8.60;;;7.00;;
64791;SDS011;51226;47.504;19.074;2023-04-06T13:42:29;8.15;;;6.45;;
64791;SDS011;51226;47.504;19.074;2023-04-06T13:45:32;8.95;;;7.05;;
64791;SDS011;51226;47.504;19.074;2023-04-06T13:48:35;9.63;;;7.12;;
64791;SDS011;51226;47.504;19.074;2023-04-06T13:51:38;9.65;;;6.93;;
64791;SDS011;51226;47.504;19.074;2023-04-06T13:54:41;10.88;;;6.72;;
64791;SDS011;51226;47.504;19.074;2023-04-06T13:57:44;7.12;;;6.18;;
64791;SDS011;51226;47.504;19.074;2023-04-06T14:00:47;8.32;;;6.00;;
64791;SDS011;51226;47.504;19.074;2023-04-06T14:03:51;7.05;;;6.28;;
64791;SDS011;51226;47.504;19.074;2023-04-06T14:06:54;6.32;;;5.72;;
64791;SDS011;51226;47.504;19.074;2023-04-06T14:09:57;7.55;;;5.90;;
64791;SDS011;51226;47.504;19.074;2023-04-06T14:13:00;6.72;;;6.03;;
64791;SDS011;51226;47.504;19.074;2023-04-06T14:16:03;10.50;;;7.15;;
64791;SDS011;51226;47.504;19.074;2023-04-06T14:19:07;8.75;;;6.60;;
64791;SDS011;51226;47.504;19.074;2023-04-06T14:25:12;12.32;;;9.00;;
64791;SDS011;51226;47.504;19.074;2023-04-06T14:28:15;9.13;;;5.97;;
64791;SDS011;51226;47.504;19.074;2023-04-06T14:31:18;7.18;;;6.40;;
64791;SDS011;51226;47.504;19.074;2023-04-06T14:34:21;9.68;;;6.00;;
64791;SDS011;51226;47.504;19.074;2023-04-06T14:37:24;6.60;;;5.97;;
64791;SDS011;51226;47.504;19.074;2023-04-06T14:40:28;6.85;;;5.62;;
64791;SDS011;51226;47.504;19.074;2023-04-06T14:43:30;7.60;;;5.80;;
64791;SDS011;51226;47.504;19.074;2023-04-06T14:49:36;8.10;;;6.03;;
64791;SDS011;51226;47.504;19.074;2023-04-06T14:52:40;6.65;;;6.05;;
64791;SDS011;51226;47.504;19.074;2023-04-06T14:55:42;9.53;;;7.33;;
64791;SDS011;51226;47.504;19.074;2023-04-06T14:58:46;9.82;;;6.80;;
64791;SDS011;51226;47.504;19.074;2023-04-06T15:01:49;9.00;;;6.75;;
64791;SDS011;51226;47.504;19.074;2023-04-06T15:07:56;9.18;;;6.50;;
64791;SDS011;51226;47.504;19.074;2023-04-06T15:10:59;12.95;;;8.68;;
64791;SDS011;51226;47.504;19.074;2023-04-06T15:14:01;9.43;;;6.60;;
64791;SDS011;51226;47.504;19.074;2023-04-06T15:17:05;8.73;;;6.72;;
64791;SDS011;51226;47.504;19.074;2023-04-06T15:20:08;9.25;;;6.62;;
64791;SDS011;51226;47.504;19.074;2023-04-06T15:23:11;9.23;;;6.78;;
64791;SDS011;51226;47.504;19.074;2023-04-06T15:26:14;11.23;;;8.50;;
64791;SDS011;51226;47.504;19.074;2023-04-06T15:29:17;10.43;;;6.93;;
64791;SDS011;51226;47.504;19.074;2023-04-06T15:32:20;8.77;;;6.70;;
64791;SDS011;51226;47.504;19.074;2023-04-06T15:35:24;9.95;;;7.35;;
64791;SDS011;51226;47.504;19.074;2023-04-06T15:38:27;11.20;;;6.93;;
64791;SDS011;51226;47.504;19.074;2023-04-06T15:41:31;11.27;;;7.82;;
64791;SDS011;51226;47.504;19.074;2023-04-06T15:44:34;7.60;;;6.85;;
64791;SDS011;51226;47.504;19.074;2023-04-06T15:47:38;7.82;;;6.62;;
64791;SDS011;51226;47.504;19.074;2023-04-06T15:50:42;10.55;;;8.18;;
64791;SDS011;51226;47.504;19.074;2023-04-06T15:53:45;11.00;;;7.95;;
64791;SDS011;51226;47.504;19.074;2023-04-06T15:56:48;13.00;;;8.00;;
64791;SDS011;51226;47.504;19.074;2023-04-06T15:59:52;8.98;;;6.70;;
64791;SDS011;51226;47.504;19.074;2023-04-06T16:02:56;10.35;;;7.12;;
64791;SDS011;51226;47.504;19.074;2023-04-06T16:09:05;8.65;;;6.78;;
64791;SDS011;51226;47.504;19.074;2023-04-06T16:12:09;10.68;;;6.85;;
64791;SDS011;51226;47.504;19.074;2023-04-06T16:15:11;9.13;;;7.28;;
64791;SDS011;51226;47.504;19.074;2023-04-06T16:18:15;9.82;;;7.37;;
64791;SDS011;51226;47.504;19.074;2023-04-06T16:21:18;10.73;;;7.12;;
64791;SDS011;51226;47.504;19.074;2023-04-06T16:24:21;9.75;;;7.70;;
64791;SDS011;51226;47.504;19.074;2023-04-06T16:27:24;9.80;;;7.55;;
64791;SDS011;51226;47.504;19.074;2023-04-06T16:30:27;11.88;;;8.10;;
64791;SDS011;51226;47.504;19.074;2023-04-06T16:33:32;10.68;;;6.97;;
64791;SDS011;51226;47.504;19.074;2023-04-06T16:36:35;12.73;;;8.18;;
64791;SDS011;51226;47.504;19.074;2023-04-06T16:39:38;8.13;;;7.20;;
64791;SDS011;51226;47.504;19.074;2023-04-06T16:42:42;9.40;;;7.65;;
64791;SDS011;51226;47.504;19.074;2023-04-06T16:45:49;9.07;;;7.78;;
64791;SDS011;51226;47.504;19.074;2023-04-06T16:48:53;9.93;;;7.70;;
64791;SDS011;51226;47.504;19.074;2023-04-06T16:51:56;11.33;;;8.60;;
64791;SDS011;51226;47.504;19.074;2023-04-06T16:55:03;10.30;;;8.35;;
64791;SDS011;51226;47.504;19.074;2023-04-06T16:58:07;11.45;;;9.07;;
64791;SDS011;51226;47.504;19.074;2023-04-06T17:04:23;11.63;;;8.38;;
64791;SDS011;51226;47.504;19.074;2023-04-06T17:07:26;12.37;;;9.80;;
64791;SDS011;51226;47.504;19.074;2023-04-06T17:10:33;12.63;;;10.05;;
64791;SDS011;51226;47.504;19.074;2023-04-06T17:13:53;16.42;;;10.52;;
64791;SDS011;51226;47.504;19.074;2023-04-06T17:16:57;12.40;;;9.60;;
64791;SDS011;51226;47.504;19.074;2023-04-06T17:20:00;12.23;;;10.10;;
64791;SDS011;51226;47.504;19.074;2023-04-06T17:23:03;14.23;;;10.33;;
64791;SDS011;51226;47.504;19.074;2023-04-06T17:29:09;18.30;;;12.37;;
64791;SDS011;51226;47.504;19.074;2023-04-06T17:32:13;14.95;;;11.90;;
64791;SDS011;51226;47.504;19.074;2023-04-06T17:35:15;15.60;;;10.73;;
64791;SDS011;51226;47.504;19.074;2023-04-06T17:38:19;14.00;;;10.50;;
64791;SDS011;51226;47.504;19.074;2023-04-06T17:41:22;14.07;;;10.32;;
64791;SDS011;51226;47.504;19.074;2023-04-06T17:44:25;15.32;;;11.32;;
64791;SDS011;51226;47.504;19.074;2023-04-06T17:47:28;12.37;;;9.98;;
64791;SDS011;51226;47.504;19.074;2023-04-06T17:50:37;14.93;;;10.73;;
64791;SDS011;51226;47.504;19.074;2023-04-06T17:53:40;15.75;;;11.77;;
64791;SDS011;51226;47.504;19.074;2023-04-06T17:56:43;16.35;;;13.45;;
64791;SDS011;51226;47.504;19.074;2023-04-06T17:59:46;18.33;;;13.43;;
64791;SDS011;51226;47.504;19.074;2023-04-06T18:02:49;16.08;;;13.35;;
64791;SDS011;51226;47.504;19.074;2023-04-06T18:05:56;18.65;;;14.65;;
64791;SDS011;51226;47.504;19.074;2023-04-06T18:08:59;18.00;;;13.62;;
64791;SDS011;51226;47.504;19.074;2023-04-06T18:12:02;18.10;;;14.82;;
64791;SDS011;51226;47.504;19.074;2023-04-06T18:15:05;18.10;;;13.93;;
64791;SDS011;51226;47.504;19.074;2023-04-06T18:18:09;17.08;;;14.05;;
64791;SDS011;51226;47.504;19.074;2023-04-06T18:21:12;16.20;;;13.52;;
64791;SDS011;51226;47.504;19.074;2023-04-06T18:24:15;19.70;;;14.75;;
64791;SDS011;51226;47.504;19.074;2023-04-06T18:27:34;17.98;;;14.10;;
64791;SDS011;51226;47.504;19.074;2023-04-06T18:30:37;20.45;;;14.45;;
64791;SDS011;51226;47.504;19.074;2023-04-06T18:33:40;17.08;;;14.43;;
64791;SDS011;51226;47.504;19.074;2023-04-06T18:36:43;18.20;;;14.13;;
64791;SDS011;51226;47.504;19.074;2023-04-06T18:39:46;18.52;;;14.23;;
64791;SDS011;51226;47.504;19.074;2023-04-06T18:42:49;18.37;;;14.63;;
64791;SDS011;51226;47.504;19.074;2023-04-06T18:45:52;19.92;;;15.13;;
64791;SDS011;51226;47.504;19.074;2023-04-06T18:48:55;21.92;;;16.48;;
64791;SDS011;51226;47.504;19.074;2023-04-06T18:51:58;19.62;;;14.68;;
64791;SDS011;51226;47.504;19.074;2023-04-06T18:55:01;19.40;;;14.87;;
64791;SDS011;51226;47.504;19.074;2023-04-06T18:58:03;18.00;;;15.18;;
64791;SDS011;51226;47.504;19.074;2023-04-06T19:01:07;29.00;;;19.17;;
64791;SDS011;51226;47.504;19.074;2023-04-06T19:04:10;21.37;;;17.27;;
64791;SDS011;51226;47.504;19.074;2023-04-06T19:07:13;18.42;;;16.37;;
64791;SDS011;51226;47.504;19.074;2023-04-06T19:10:16;20.95;;;16.17;;
64791;SDS011;51226;47.504;19.074;2023-04-06T19:13:20;20.17;;;15.38;;
64791;SDS011;51226;47.504;19.074;2023-04-06T19:16:22;21.40;;;15.57;;
64791;SDS011;51226;47.504;19.074;2023-04-06T19:19:27;22.08;;;16.00;;
64791;SDS011;51226;47.504;19.074;2023-04-06T19:22:32;21.35;;;15.63;;
64791;SDS011;51226;47.504;19.074;2023-04-06T19:25:37;19.27;;;16.40;;
64791;SDS011;51226;47.504;19.074;2023-04-06T19:28:43;20.27;;;15.52;;
64791;SDS011;51226;47.504;19.074;2023-04-06T19:31:46;22.52;;;17.45;;
64791;SDS011;51226;47.504;19.074;2023-04-06T19:34:50;21.10;;;16.27;;
64791;SDS011;51226;47.504;19.074;2023-04-06T19:37:53;21.12;;;15.10;;
64791;SDS011;51226;47.504;19.074;2023-04-06T19:40:56;19.35;;;16.60;;